Time;durP1;ratioP1;P1;durP2;ratioP2;P2;SDS_P1;SDS_P2;PMS_P1;PMS_P2;Temp;Humidity;BMP_temperature;BMP_pressure;BME280_temperature;BME280_humidity;BME280_pressure;Samples;Min_cycle;Max_cycle;Signal;HPM_P1;HPM_P2
2022/12/12 00:01:59;;;;;;;21.67;12.20;;;;;;;;;;5115464;27;20449;-70
2022/12/12 00:04:27;;;;;;;21.97;11.87;;;;;;;;;;5113785;28;20454;-70
2022/12/12 00:06:55;;;;;;;26.00;11.37;;;;;;;;;;5114966;28;20477;-70
2022/12/12 00:09:22;;;;;;;26.40;13.17;;;;;;;;;;5114973;27;20477;-70
2022/12/12 00:11:49;;;;;;;19.23;10.80;;;;;;;;;;5115006;28;20450;-70
2022/12/12 00:14:16;;;;;;;21.23;12.10;;;;;;;;;;5114597;28;20450;-70
2022/12/12 00:16:44;;;;;;;20.23;10.47;;;;;;;;;;5114696;28;20850;-70
2022/12/12 00:19:11;;;;;;;26.37;12.03;;;;;;;;;;5114940;28;20453;-70
2022/12/12 00:21:38;;;;;;;22.73;13.37;;;;;;;;;;5114876;28;20457;-70
2022/12/12 00:24:07;;;;;;;21.90;12.20;;;;;;;;;;5114224;28;20450;-70
2022/12/12 00:26:35;;;;;;;25.23;12.63;;;;;;;;;;5114717;28;20822;-71
2022/12/12 00:29:04;;;;;;;15.47;11.70;;;;;;;;;;5114713;28;20573;-70
2022/12/12 00:31:31;;;;;;;21.03;10.30;;;;;;;;;;5114848;28;20452;-71
2022/12/12 00:33:58;;;;;;;18.90;10.07;;;;;;;;;;5114098;28;20450;-70
2022/12/12 00:36:27;;;;;;;18.07;8.60;;;;;;;;;;5114730;28;20444;-70
2022/12/12 00:38:55;;;;;;;17.00;9.30;;;;;;;;;;5114349;28;20446;-71
2022/12/12 00:41:23;;;;;;;19.27;9.60;;;;;;;;;;5114676;28;20818;-71
2022/12/12 00:43:51;;;;;;;16.90;9.50;;;;;;;;;;5114014;28;20445;-70
2022/12/12 00:46:19;;;;;;;18.07;9.60;;;;;;;;;;5114387;28;20565;-69
2022/12/12 00:48:46;;;;;;;17.67;9.60;;;;;;;;;;5114187;28;20485;-70
2022/12/12 00:51:15;;;;;;;15.27;7.20;;;;;;;;;;5114456;28;20453;-70
2022/12/12 00:53:42;;;;;;;12.20;7.97;;;;;;;;;;5113584;28;20445;-71
2022/12/12 00:56:10;;;;;;;12.60;7.00;;;;;;;;;;5114526;28;20839;-70
2022/12/12 00:58:38;;;;;;;13.23;8.37;;;;;;;;;;5114137;28;20469;-73
2022/12/12 01:01:09;;;;;;;17.83;11.33;;;;;;;;;;5114165;28;20447;-70
2022/12/12 01:03:37;;;;;;;20.03;9.03;;;;;;;;;;5113627;28;20464;-70
2022/12/12 01:06:05;;;;;;;18.33;8.57;;;;;;;;;;5113830;28;20449;-71
2022/12/12 01:08:32;;;;;;;16.00;9.63;;;;;;;;;;5114176;28;20994;-73
2022/12/12 01:10:59;;;;;;;13.63;7.17;;;;;;;;;;5114224;28;20522;-71
2022/12/12 01:13:27;;;;;;;21.53;10.00;;;;;;;;;;5113978;28;20448;-72
2022/12/12 01:15:55;;;;;;;16.97;9.90;;;;;;;;;;5113385;28;20477;-71
2022/12/12 01:18:22;;;;;;;14.13;7.60;;;;;;;;;;5113807;28;20470;-69
2022/12/12 01:20:49;;;;;;;21.13;9.80;;;;;;;;;;5113847;28;20453;-73
2022/12/12 01:23:17;;;;;;;13.10;6.63;;;;;;;;;;5114347;28;20449;-69
2022/12/12 01:25:44;;;;;;;15.00;8.10;;;;;;;;;;5113261;28;20993;-72
2022/12/12 01:28:11;;;;;;;15.40;8.50;;;;;;;;;;5113695;28;20481;-69
2022/12/12 01:30:38;;;;;;;11.97;7.30;;;;;;;;;;5112135;28;20454;-70
2022/12/12 01:33:07;;;;;;;10.33;6.63;;;;;;;;;;5113576;28;20449;-72
2022/12/12 01:35:34;;;;;;;12.27;7.37;;;;;;;;;;5112913;28;20454;-70
2022/12/12 01:38:02;;;;;;;15.03;7.43;;;;;;;;;;5113482;28;20468;-70
2022/12/12 01:40:30;;;;;;;13.10;7.97;;;;;;;;;;5113659;28;20939;-69
2022/12/12 01:42:57;;;;;;;10.07;6.27;;;;;;;;;;5113401;28;20450;-69
2022/12/12 01:45:43;;;;;;;13.23;8.00;;;;;;;;;;5112734;28;20460;-70
2022/12/12 01:48:12;;;;;;;10.70;6.77;;;;;;;;;;5113187;28;20486;-70
2022/12/12 01:50:40;;;;;;;16.57;9.10;;;;;;;;;;5113385;28;20454;-72
2022/12/12 01:53:07;;;;;;;19.40;9.70;;;;;;;;;;5113466;28;20473;-71
2022/12/12 01:55:35;;;;;;;15.80;8.60;;;;;;;;;;5112781;28;20810;-72
2022/12/12 01:58:02;;;;;;;22.07;11.90;;;;;;;;;;5113180;28;20467;-70
2022/12/12 02:00:29;;;;;;;19.10;9.70;;;;;;;;;;5113299;28;20449;-69
2022/12/12 02:02:56;;;;;;;19.87;11.70;;;;;;;;;;5113572;28;20821;-69
2022/12/12 02:05:25;;;;;;;20.07;11.23;;;;;;;;;;5112636;28;20446;-69
2022/12/12 02:07:53;;;;;;;19.13;11.70;;;;;;;;;;5113042;28;20469;-69
2022/12/12 02:10:20;;;;;;;31.97;12.90;;;;;;;;;;5113129;28;20519;-72
2022/12/12 02:12:48;;;;;;;24.93;10.70;;;;;;;;;;5113061;28;20461;-71
2022/12/12 02:15:15;;;;;;;21.53;10.83;;;;;;;;;;5112629;28;20460;-69
2022/12/12 02:17:54;;;;;;;18.47;8.80;;;;;;;;;;5112839;28;20823;-72
2022/12/12 02:20:45;;;;;;;21.07;10.60;;;;;;;;;;5113067;28;20445;-72
2022/12/12 02:23:30;;;;;;;30.70;15.00;;;;;;;;;;5113226;28;20441;-72
2022/12/12 02:26:08;;;;;;;19.20;11.73;;;;;;;;;;5112927;28;20469;-70
2022/12/12 02:28:54;;;;;;;27.80;13.20;;;;;;;;;;5114509;28;20485;-71
2022/12/12 02:31:24;;;;;;;27.40;13.80;;;;;;;;;;5115134;28;20505;-71
2022/12/12 02:33:54;;;;;;;25.13;12.80;;;;;;;;;;5116371;28;20449;-71
2022/12/12 02:36:27;;;;;;;17.33;11.50;;;;;;;;;;5116968;28;20446;-71
2022/12/12 02:38:58;;;;;;;27.03;14.93;;;;;;;;;;5116993;28;20452;-71
2022/12/12 02:41:28;;;;;;;17.03;10.80;;;;;;;;;;5117211;28;20812;-70
2022/12/12 02:44:00;;;;;;;24.73;13.23;;;;;;;;;;5116098;28;20456;-71
2022/12/12 02:46:30;;;;;;;23.20;14.03;;;;;;;;;;5116796;28;20457;-71
2022/12/12 02:49:00;;;;;;;25.97;12.07;;;;;;;;;;5116737;28;20482;-71
2022/12/12 02:51:28;;;;;;;26.50;13.60;;;;;;;;;;5116927;28;20446;-70
2022/12/12 02:53:55;;;;;;;34.17;14.13;;;;;;;;;;5116108;28;20446;-71
2022/12/12 02:56:40;;;;;;;33.10;13.17;;;;;;;;;;5116522;28;20445;-72
2022/12/12 02:59:07;;;;;;;19.30;14.13;;;;;;;;;;5106513;28;20821;-71
2022/12/12 03:01:41;;;;;;;33.20;14.17;;;;;;;;;;5116612;28;20446;-71
2022/12/12 03:10:00;;;;;;;28.50;14.20;;;;;;;;;;5116394;28;20484;-71
2022/12/12 03:12:32;;;;;;;14.30;8.43;;;;;;;;;;5116617;27;20961;-71
2022/12/12 03:15:02;;;;;;;19.00;9.10;;;;;;;;;;5115731;28;20832;-72
2022/12/12 03:17:33;;;;;;;31.37;14.17;;;;;;;;;;5116156;28;20485;-71
2022/12/12 03:20:04;;;;;;;33.47;17.63;;;;;;;;;;5116303;28;20441;-71
2022/12/12 03:22:38;;;;;;;26.03;12.87;;;;;;;;;;5116122;28;20449;-70
2022/12/12 03:25:08;;;;;;;24.47;14.80;;;;;;;;;;5115674;28;20502;-71
2022/12/12 03:27:38;;;;;;;34.30;11.47;;;;;;;;;;5116025;28;20557;-72
2022/12/12 03:30:07;;;;;;;18.23;11.30;;;;;;;;;;5114157;28;20481;-72
2022/12/12 03:32:37;;;;;;;19.93;10.57;;;;;;;;;;5116072;28;20458;-71
2022/12/12 03:35:10;;;;;;;32.60;13.00;;;;;;;;;;5115100;28;20446;-71
2022/12/12 03:37:40;;;;;;;21.80;12.37;;;;;;;;;;5115778;28;20856;-71
2022/12/12 03:40:09;;;;;;;25.03;12.70;;;;;;;;;;5115614;28;20796;-71
2022/12/12 03:42:39;;;;;;;19.93;9.33;;;;;;;;;;5115786;28;20460;-72
2022/12/12 03:45:08;;;;;;;19.10;10.20;;;;;;;;;;5115085;28;20453;-71
2022/12/12 03:47:40;;;;;;;23.93;12.90;;;;;;;;;;5115616;28;21039;-71
2022/12/12 03:50:11;;;;;;;28.07;14.00;;;;;;;;;;5115708;28;20508;-71
2022/12/12 03:52:41;;;;;;;20.73;11.97;;;;;;;;;;5115617;28;20446;-71
2022/12/12 03:55:11;;;;;;;27.53;13.60;;;;;;;;;;5114813;28;20446;-71
2022/12/12 03:57:40;;;;;;;27.60;15.23;;;;;;;;;;5115418;28;20477;-72
2022/12/12 04:00:08;;;;;;;30.67;16.00;;;;;;;;;;5115547;28;20934;-71
2022/12/12 04:02:40;;;;;;;21.63;14.90;;;;;;;;;;5115691;28;20445;-72
2022/12/12 04:05:13;;;;;;;28.33;15.83;;;;;;;;;;5114753;28;20980;-72
2022/12/12 04:07:42;;;;;;;31.73;14.60;;;;;;;;;;5115218;28;21017;-71
2022/12/12 04:13:00;;;;;;;31.20;14.70;;;;;;;;;;5115269;28;20446;-72
2022/12/12 04:15:40;;;;;;;29.80;14.33;;;;;;;;;;5114394;28;21008;-71
2022/12/12 04:18:14;;;;;;;25.13;13.70;;;;;;;;;;5114989;28;20575;-71
2022/12/12 04:23:33;;;;;;;19.87;11.73;;;;;;;;;;5114407;28;20517;-72
2022/12/12 04:28:56;;;;;;;34.60;17.50;;;;;;;;;;5094380;28;20486;-70
2022/12/12 04:31:25;;;;;;;32.40;15.80;;;;;;;;;;5092005;28;20446;-72
2022/12/12 04:33:57;;;;;;;32.07;15.90;;;;;;;;;;5093838;28;20948;-71
2022/12/12 04:36:24;;;;;;;29.07;15.03;;;;;;;;;;5094291;28;20454;-71
2022/12/12 04:38:52;;;;;;;25.70;15.00;;;;;;;;;;5094226;28;20837;-71
2022/12/12 04:41:20;;;;;;;32.40;17.67;;;;;;;;;;5094276;28;20517;-72
2022/12/12 04:43:48;;;;;;;27.63;15.23;;;;;;;;;;5093451;28;20460;-72
2022/12/12 04:46:17;;;;;;;35.50;19.67;;;;;;;;;;5094199;28;20452;-71
2022/12/12 04:48:46;;;;;;;28.13;14.53;;;;;;;;;;5093809;28;20471;-73
2022/12/12 04:51:17;;;;;;;29.70;15.27;;;;;;;;;;5093452;28;20434;-71
2022/12/12 04:53:47;;;;;;;28.33;13.63;;;;;;;;;;5093346;28;20455;-72
2022/12/12 04:56:16;;;;;;;25.77;13.70;;;;;;;;;;5094189;28;20450;-71
2022/12/12 04:58:43;;;;;;;29.47;16.97;;;;;;;;;;5093766;28;20469;-72
2022/12/12 05:01:14;;;;;;;30.43;16.40;;;;;;;;;;5093880;28;20482;-72
2022/12/12 05:03:44;;;;;;;24.57;14.37;;;;;;;;;;5093312;28;20457;-72
2022/12/12 05:06:12;;;;;;;30.37;14.57;;;;;;;;;;5093962;28;20447;-71
2022/12/12 05:08:43;;;;;;;26.03;13.10;;;;;;;;;;5093678;28;20467;-71
2022/12/12 05:11:10;;;;;;;24.07;14.50;;;;;;;;;;5093880;28;20461;-71
2022/12/12 05:13:38;;;;;;;40.77;16.97;;;;;;;;;;5093016;28;20447;-74
2022/12/12 05:16:10;;;;;;;28.80;17.33;;;;;;;;;;5093359;28;20466;-72
2022/12/12 05:18:38;;;;;;;29.83;15.97;;;;;;;;;;5093486;28;20492;-71
2022/12/12 05:21:05;;;;;;;28.83;17.10;;;;;;;;;;5093613;28;20455;-70
2022/12/12 05:23:32;;;;;;;42.37;20.00;;;;;;;;;;5093017;28;20986;-72
2022/12/12 05:26:06;;;;;;;37.50;17.73;;;;;;;;;;5093377;28;20450;-72
2022/12/12 05:28:33;;;;;;;32.60;17.13;;;;;;;;;;5093567;28;20553;-72
2022/12/12 05:31:00;;;;;;;38.20;18.97;;;;;;;;;;5093319;28;20576;-71
2022/12/12 05:33:27;;;;;;;34.30;18.77;;;;;;;;;;5092942;28;20450;-76
2022/12/12 05:35:54;;;;;;;30.27;15.47;;;;;;;;;;5093021;28;20465;-71
2022/12/12 05:38:21;;;;;;;28.93;15.07;;;;;;;;;;5093155;28;20466;-70
2022/12/12 05:40:49;;;;;;;32.77;18.77;;;;;;;;;;5093114;28;20439;-71
2022/12/12 05:43:18;;;;;;;30.30;14.10;;;;;;;;;;5093123;28;20446;-71
2022/12/12 05:45:45;;;;;;;36.97;18.55;;;;;;;;;;5092301;28;20445;-71
2022/12/12 05:48:12;;;;;;;35.40;18.30;;;;;;;;;;5093108;28;20232;-72
2022/12/12 05:50:39;;;;;;;37.43;17.10;;;;;;;;;;5093064;28;20844;-72
2022/12/12 05:53:06;;;;;;;35.10;16.23;;;;;;;;;;5093013;28;20447;-71
2022/12/12 05:55:33;;;;;;;26.60;16.63;;;;;;;;;;5092372;28;20449;-72
2022/12/12 05:58:00;;;;;;;34.70;18.60;;;;;;;;;;5092975;28;20466;-73
2022/12/12 06:00:29;;;;;;;44.17;21.20;;;;;;;;;;5093207;28;20928;-71
2022/12/12 06:02:56;;;;;;;33.77;15.23;;;;;;;;;;5092066;28;20455;-71
2022/12/12 06:05:23;;;;;;;34.47;20.00;;;;;;;;;;5092257;28;20461;-71
2022/12/12 06:07:50;;;;;;;31.20;16.53;;;;;;;;;;5092682;28;20467;-72
2022/12/12 06:10:18;;;;;;;30.13;16.80;;;;;;;;;;5092561;28;20490;-71
2022/12/12 06:12:45;;;;;;;30.30;17.93;;;;;;;;;;5092950;28;20454;-71
2022/12/12 06:15:12;;;;;;;29.90;12.73;;;;;;;;;;5092458;28;20936;-70
2022/12/12 06:17:40;;;;;;;31.40;16.37;;;;;;;;;;5092569;28;20485;-70
2022/12/12 06:20:08;;;;;;;30.00;13.90;;;;;;;;;;5092699;28;20500;-71
2022/12/12 06:22:35;;;;;;;29.83;15.17;;;;;;;;;;5098560;28;20454;-71
2022/12/12 06:25:03;;;;;;;51.57;15.33;;;;;;;;;;5091524;28;20507;-70
2022/12/12 06:27:30;;;;;;;25.47;13.23;;;;;;;;;;5092161;28;20467;-70
2022/12/12 06:29:57;;;;;;;27.17;15.97;;;;;;;;;;5092193;28;20500;-70
2022/12/12 06:32:24;;;;;;;33.00;12.83;;;;;;;;;;5091942;28;20451;-71
2022/12/12 06:34:53;;;;;;;26.47;12.67;;;;;;;;;;5091447;28;20476;-70
2022/12/12 06:37:21;;;;;;;23.50;11.47;;;;;;;;;;5092157;28;20553;-72
2022/12/12 06:39:48;;;;;;;30.07;14.27;;;;;;;;;;5091409;28;20459;-70
2022/12/12 06:42:15;;;;;;;23.47;14.97;;;;;;;;;;5092018;28;20458;-70
2022/12/12 06:44:42;;;;;;;35.40;14.87;;;;;;;;;;5091610;28;20899;-71
2022/12/12 06:47:09;;;;;;;25.53;12.80;;;;;;;;;;5092345;28;20826;-71
2022/12/12 06:49:36;;;;;;;25.63;13.10;;;;;;;;;;5091988;28;20482;-70
2022/12/12 06:52:05;;;;;;;27.43;14.47;;;;;;;;;;5091739;28;20940;-71
2022/12/12 06:54:32;;;;;;;27.17;13.77;;;;;;;;;;5091781;28;20585;-71
2022/12/12 06:56:59;;;;;;;31.37;16.30;;;;;;;;;;5092153;28;20994;-70
2022/12/12 06:59:28;;;;;;;27.93;16.77;;;;;;;;;;5092123;28;20492;-71
2022/12/12 07:01:55;;;;;;;27.60;14.27;;;;;;;;;;5091599;28;20461;-72
2022/12/12 07:04:23;;;;;;;26.67;14.80;;;;;;;;;;5091476;28;20467;-72
2022/12/12 07:06:50;;;;;;;29.00;13.23;;;;;;;;;;5091984;28;20974;-71
2022/12/12 07:09:19;;;;;;;34.23;14.87;;;;;;;;;;5092119;28;20454;-70
2022/12/12 07:11:46;;;;;;;34.07;13.90;;;;;;;;;;5091687;28;20498;-71
2022/12/12 07:14:13;;;;;;;24.63;11.37;;;;;;;;;;5092351;28;20454;-70
2022/12/12 07:16:40;;;;;;;22.77;13.37;;;;;;;;;;5095239;28;20470;-71
2022/12/12 07:19:08;;;;;;;23.90;13.20;;;;;;;;;;5095531;28;20447;-71
2022/12/12 07:21:35;;;;;;;34.23;16.57;;;;;;;;;;5095130;28;20461;-73
2022/12/12 07:24:02;;;;;;;23.23;13.27;;;;;;;;;;5094549;28;20470;-70
2022/12/12 07:26:30;;;;;;;28.57;13.90;;;;;;;;;;5095249;28;20466;-72
2022/12/12 07:28:57;;;;;;;29.43;15.10;;;;;;;;;;5095441;28;20794;-70
2022/12/12 07:31:25;;;;;;;31.50;14.90;;;;;;;;;;5093365;28;20501;-72
2022/12/12 07:33:53;;;;;;;29.13;14.80;;;;;;;;;;5094476;28;20454;-71
2022/12/12 07:36:20;;;;;;;22.87;12.57;;;;;;;;;;5101191;28;20532;-70
2022/12/12 07:38:47;;;;;;;40.77;19.70;;;;;;;;;;5115416;28;20852;-71
2022/12/12 07:41:15;;;;;;;33.93;17.30;;;;;;;;;;5115563;28;20452;-70
2022/12/12 07:43:45;;;;;;;26.40;14.50;;;;;;;;;;5114798;28;20457;-72
2022/12/12 07:46:14;;;;;;;34.83;17.50;;;;;;;;;;5115212;28;20461;-71
2022/12/12 07:48:41;;;;;;;21.00;12.17;;;;;;;;;;5115265;28;20842;-70
2022/12/12 07:51:08;;;;;;;27.87;14.37;;;;;;;;;;5115351;28;20489;-71
2022/12/12 07:53:35;;;;;;;27.43;11.83;;;;;;;;;;5114493;28;20831;-71
2022/12/12 07:56:05;;;;;;;23.10;12.10;;;;;;;;;;5114341;28;20456;-70
2022/12/12 07:58:32;;;;;;;22.37;11.93;;;;;;;;;;5097536;28;20983;-72
2022/12/12 08:01:01;;;;;;;23.23;12.43;;;;;;;;;;5092756;28;21007;-71
2022/12/12 08:03:28;;;;;;;23.33;12.50;;;;;;;;;;5092856;28;20454;-72
2022/12/12 08:05:55;;;;;;;23.37;12.30;;;;;;;;;;5091602;28;20534;-70
2022/12/12 08:08:22;;;;;;;20.60;9.37;;;;;;;;;;5093313;28;20884;-71
2022/12/12 08:10:50;;;;;;;19.97;10.37;;;;;;;;;;5093096;28;20497;-71
2022/12/12 08:13:17;;;;;;;12.53;8.67;;;;;;;;;;5093343;28;20458;-70
2022/12/12 08:15:44;;;;;;;19.40;9.73;;;;;;;;;;5093609;28;20450;-71
2022/12/12 08:18:12;;;;;;;22.30;10.23;;;;;;;;;;5094280;28;20477;-70
2022/12/12 08:20:40;;;;;;;13.40;9.10;;;;;;;;;;5093670;28;20442;-70
2022/12/12 08:23:07;;;;;;;18.90;11.47;;;;;;;;;;5094635;28;20962;-70
2022/12/12 08:25:35;;;;;;;22.13;12.27;;;;;;;;;;5092875;28;20442;-70
2022/12/12 08:28:02;;;;;;;22.00;11.70;;;;;;;;;;5094192;28;20640;-70
2022/12/12 08:30:29;;;;;;;16.87;10.50;;;;;;;;;;5092511;28;20493;-72
2022/12/12 08:32:56;;;;;;;15.67;11.20;;;;;;;;;;5093982;28;20960;-72
2022/12/12 08:35:25;;;;;;;20.60;11.37;;;;;;;;;;5092453;28;20451;-71
2022/12/12 08:37:52;;;;;;;17.90;9.60;;;;;;;;;;5094000;28;20471;-70
2022/12/12 08:40:19;;;;;;;22.57;10.70;;;;;;;;;;5094114;28;20442;-70
2022/12/12 08:42:46;;;;;;;16.23;11.40;;;;;;;;;;5093801;28;20454;-70
2022/12/12 08:45:13;;;;;;;12.93;9.10;;;;;;;;;;5093543;28;20447;-70
2022/12/12 08:47:41;;;;;;;19.10;8.83;;;;;;;;;;5093953;28;21013;-71
2022/12/12 08:50:08;;;;;;;18.60;11.20;;;;;;;;;;5093948;28;20478;-70
2022/12/12 08:52:37;;;;;;;15.47;9.27;;;;;;;;;;5094089;28;20447;-71
2022/12/12 08:55:04;;;;;;;19.30;11.57;;;;;;;;;;5093213;28;20952;-70
2022/12/12 08:57:31;;;;;;;16.83;11.47;;;;;;;;;;5093753;28;20463;-70
2022/12/12 08:59:58;;;;;;;20.23;11.73;;;;;;;;;;5093951;28;20800;-70
2022/12/12 09:02:25;;;;;;;21.87;10.80;;;;;;;;;;5093797;28;20454;-70
2022/12/12 09:04:52;;;;;;;16.03;10.33;;;;;;;;;;5093111;28;20447;-70
2022/12/12 09:07:20;;;;;;;17.83;10.53;;;;;;;;;;5093730;28;20467;-71
2022/12/12 09:09:48;;;;;;;15.20;11.43;;;;;;;;;;5093558;28;20832;-71
2022/12/12 09:12:15;;;;;;;24.47;10.67;;;;;;;;;;5093786;28;20783;-70
2022/12/12 09:14:43;;;;;;;14.60;10.83;;;;;;;;;;5092946;28;20500;-70
2022/12/12 09:17:10;;;;;;;18.27;10.37;;;;;;;;;;5093445;28;20490;-70
2022/12/12 09:19:37;;;;;;;16.77;10.23;;;;;;;;;;5093327;28;20460;-71
2022/12/12 09:22:04;;;;;;;21.93;11.40;;;;;;;;;;5093483;28;20446;-70
2022/12/12 09:24:31;;;;;;;18.00;10.03;;;;;;;;;;5092934;28;20447;-70
2022/12/12 09:27:00;;;;;;;17.27;10.10;;;;;;;;;;5093317;28;20862;-71
2022/12/12 09:29:27;;;;;;;18.43;11.00;;;;;;;;;;5093295;28;20455;-72
2022/12/12 09:31:54;;;;;;;20.83;11.50;;;;;;;;;;5093044;28;21072;-71
2022/12/12 09:34:21;;;;;;;16.77;11.33;;;;;;;;;;5092474;28;20458;-70
2022/12/12 09:36:48;;;;;;;16.87;12.10;;;;;;;;;;5092845;28;20966;-69
2022/12/12 09:39:15;;;;;;;13.90;10.57;;;;;;;;;;5093047;28;20465;-69
2022/12/12 09:41:43;;;;;;;12.60;7.93;;;;;;;;;;5093140;28;20470;-70
2022/12/12 09:44:14;;;;;;;14.30;9.47;;;;;;;;;;5092465;28;20461;-69
2022/12/12 09:46:44;;;;;;;17.90;10.40;;;;;;;;;;5092927;28;20952;-72
2022/12/12 09:49:15;;;;;;;17.77;9.97;;;;;;;;;;5093020;28;20823;-71
2022/12/12 09:51:44;;;;;;;15.70;10.63;;;;;;;;;;5092788;28;20486;-72
2022/12/12 09:54:15;;;;;;;23.30;10.53;;;;;;;;;;5092383;28;20447;-68
2022/12/12 09:56:48;;;;;;;19.07;10.57;;;;;;;;;;5092814;28;20455;-69
2022/12/12 09:59:19;;;;;;;17.17;11.13;;;;;;;;;;5092964;28;20451;-71
2022/12/12 10:01:50;;;;;;;14.50;9.03;;;;;;;;;;5092799;28;20451;-70
2022/12/12 10:04:23;;;;;;;17.50;10.20;;;;;;;;;;5092297;28;20465;-67
2022/12/12 10:06:56;;;;;;;15.80;9.70;;;;;;;;;;5092826;28;20466;-68
2022/12/12 10:09:34;;;;;;;17.60;8.73;;;;;;;;;;5092875;28;20486;-67
2022/12/12 10:12:02;;;;;;;10.53;7.57;;;;;;;;;;5092562;28;20486;-69
2022/12/12 10:14:33;;;;;;;13.93;8.90;;;;;;;;;;5092240;28;20822;-68
2022/12/12 10:17:01;;;;;;;13.10;9.20;;;;;;;;;;5092664;28;20482;-68
2022/12/12 10:19:30;;;;;;;12.20;7.97;;;;;;;;;;5092944;28;20473;-68
2022/12/12 10:22:02;;;;;;;12.90;8.80;;;;;;;;;;5092604;28;20818;-68
2022/12/12 10:24:31;;;;;;;13.43;9.23;;;;;;;;;;5091979;28;20447;-68
2022/12/12 10:26:59;;;;;;;14.70;8.40;;;;;;;;;;5092492;28;20470;-68
2022/12/12 10:29:27;;;;;;;15.30;9.73;;;;;;;;;;5092690;28;20456;-68
2022/12/12 10:32:00;;;;;;;19.93;11.03;;;;;;;;;;5092437;28;20512;-69
2022/12/12 10:34:33;;;;;;;13.70;7.73;;;;;;;;;;5092070;28;20446;-68
2022/12/12 10:37:08;;;;;;;12.40;9.13;;;;;;;;;;5092343;28;20474;-69
2022/12/12 10:39:40;;;;;;;13.27;8.10;;;;;;;;;;5092660;28;20571;-69
2022/12/12 10:42:11;;;;;;;9.90;6.93;;;;;;;;;;5092628;28;20928;-70
2022/12/12 10:44:49;;;;;;;12.53;8.30;;;;;;;;;;5091962;28;20450;-70
2022/12/12 10:47:18;;;;;;;15.27;9.20;;;;;;;;;;5092320;28;20470;-71
2022/12/12 10:49:45;;;;;;;26.67;12.10;;;;;;;;;;5094215;28;20450;-70
2022/12/12 10:52:17;;;;;;;16.43;9.80;;;;;;;;;;5096268;28;20487;-71
2022/12/12 10:54:46;;;;;;;20.50;12.03;;;;;;;;;;5095704;28;20454;-70
2022/12/12 10:57:14;;;;;;;17.40;10.13;;;;;;;;;;5096198;28;20474;-70
2022/12/12 10:59:42;;;;;;;14.10;9.23;;;;;;;;;;5096012;28;20469;-71
2022/12/12 11:02:26;;;;;;;16.43;10.00;;;;;;;;;;5096046;28;20446;-70
2022/12/12 11:04:58;;;;;;;14.80;9.70;;;;;;;;;;5095387;28;20450;-70
2022/12/12 11:07:26;;;;;;;16.33;10.33;;;;;;;;;;5096130;28;20474;-70
2022/12/12 11:09:54;;;;;;;11.67;8.50;;;;;;;;;;5095880;28;20465;-71
2022/12/12 11:12:21;;;;;;;14.43;9.00;;;;;;;;;;5095781;28;20482;-72
2022/12/12 11:14:49;;;;;;;13.60;8.53;;;;;;;;;;5095148;28;20451;-71
2022/12/12 11:17:20;;;;;;;11.90;7.83;;;;;;;;;;5095640;28;20486;-71
2022/12/12 11:19:49;;;;;;;9.43;7.23;;;;;;;;;;5096008;28;20469;-69
2022/12/12 11:22:16;;;;;;;10.87;7.80;;;;;;;;;;5095886;28;20453;-69
2022/12/12 11:24:45;;;;;;;10.83;7.17;;;;;;;;;;5094906;28;20454;-68
2022/12/12 11:27:20;;;;;;;8.57;7.17;;;;;;;;;;5095531;28;20470;-68
2022/12/12 11:29:48;;;;;;;9.43;6.93;;;;;;;;;;5095718;28;20446;-68
2022/12/12 11:32:16;;;;;;;12.27;8.13;;;;;;;;;;5095651;28;20486;-68
2022/12/12 11:34:46;;;;;;;14.23;8.13;;;;;;;;;;5094966;28;20457;-69
2022/12/12 11:37:16;;;;;;;12.87;8.60;;;;;;;;;;5095388;28;20475;-69
2022/12/12 11:39:45;;;;;;;11.63;7.23;;;;;;;;;;5095310;28;20446;-68
2022/12/12 11:42:19;;;;;;;17.80;7.63;;;;;;;;;;5095492;28;20446;-68
2022/12/12 11:44:48;;;;;;;12.53;7.97;;;;;;;;;;5094624;28;20465;-68
2022/12/12 11:47:20;;;;;;;9.80;7.20;;;;;;;;;;5095228;28;20482;-70
2022/12/12 11:49:48;;;;;;;10.93;7.63;;;;;;;;;;5095130;28;20469;-69
2022/12/12 11:52:21;;;;;;;15.17;9.37;;;;;;;;;;5095098;28;20489;-69
2022/12/12 11:54:49;;;;;;;11.50;8.00;;;;;;;;;;5094373;28;20806;-69
2022/12/12 11:57:19;;;;;;;8.93;7.07;;;;;;;;;;5095195;28;20471;-69
2022/12/12 11:59:55;;;;;;;11.27;7.80;;;;;;;;;;5095144;28;20502;-69
2022/12/12 12:02:32;;;;;;;10.27;7.43;;;;;;;;;;5095359;28;20447;-69
2022/12/12 12:05:02;;;;;;;12.80;8.60;;;;;;;;;;5094221;28;20477;-72
2022/12/12 12:07:43;;;;;;;9.67;7.20;;;;;;;;;;5095113;28;20466;-72
2022/12/12 12:10:15;;;;;;;11.93;6.73;;;;;;;;;;5095245;28;20451;-69
2022/12/12 12:12:47;;;;;;;13.37;7.83;;;;;;;;;;5094610;28;20494;-72
2022/12/12 12:15:23;;;;;;;13.47;8.67;;;;;;;;;;5094231;28;20458;-69
2022/12/12 12:18:03;;;;;;;11.20;8.10;;;;;;;;;;5094521;28;20481;-69
2022/12/12 12:20:34;;;;;;;15.70;9.67;;;;;;;;;;5094829;28;20454;-69
2022/12/12 12:23:06;;;;;;;15.63;9.30;;;;;;;;;;5094418;28;20457;-73
2022/12/12 12:25:41;;;;;;;14.63;9.73;;;;;;;;;;5093929;28;20458;-72
2022/12/12 12:28:19;;;;;;;17.30;8.83;;;;;;;;;;5094544;28;20474;-71
2022/12/12 12:30:54;;;;;;;12.90;7.17;;;;;;;;;;5094329;28;20456;-72
2022/12/12 12:33:30;;;;;;;15.57;10.30;;;;;;;;;;5094474;28;20973;-72
2022/12/12 12:36:02;;;;;;;11.43;8.47;;;;;;;;;;5094288;28;20880;-71
2022/12/12 12:38:41;;;;;;;15.50;8.80;;;;;;;;;;5094230;28;20553;-71
2022/12/12 12:41:16;;;;;;;14.13;10.17;;;;;;;;;;5094345;28;20940;-72
2022/12/12 12:43:54;;;;;;;14.20;9.13;;;;;;;;;;5093469;28;20939;-73
2022/12/12 12:46:26;;;;;;;11.67;8.70;;;;;;;;;;5094201;28;20466;-72
2022/12/12 12:48:56;;;;;;;18.97;10.00;;;;;;;;;;5094044;28;20475;-72
2022/12/12 12:51:26;;;;;;;18.23;9.57;;;;;;;;;;5093998;28;20490;-72
2022/12/12 12:53:58;;;;;;;15.27;8.63;;;;;;;;;;5093462;28;20800;-71
2022/12/12 12:56:27;;;;;;;14.33;8.53;;;;;;;;;;5093835;28;20458;-72
2022/12/12 12:58:56;;;;;;;23.33;9.77;;;;;;;;;;5093724;28;20482;-71
2022/12/12 13:01:25;;;;;;;17.87;9.47;;;;;;;;;;5093793;28;20442;-71
2022/12/12 13:03:57;;;;;;;11.77;8.00;;;;;;;;;;5093183;28;20450;-74
2022/12/12 13:06:29;;;;;;;15.67;9.17;;;;;;;;;;5093941;28;20465;-74
2022/12/12 13:09:01;;;;;;;19.70;10.70;;;;;;;;;;5093624;28;20475;-74
2022/12/12 13:11:31;;;;;;;12.87;8.23;;;;;;;;;;5093206;28;20493;-74
2022/12/12 13:14:01;;;;;;;16.37;8.80;;;;;;;;;;5093212;28;20830;-74
2022/12/12 13:16:32;;;;;;;11.47;7.97;;;;;;;;;;5093673;28;20465;-75
2022/12/12 13:19:02;;;;;;;17.00;9.30;;;;;;;;;;5093565;28;20451;-75
2022/12/12 13:21:33;;;;;;;19.37;10.20;;;;;;;;;;5093336;28;20446;-74
2022/12/12 13:24:06;;;;;;;19.63;10.90;;;;;;;;;;5092929;28;20450;-74
2022/12/12 13:26:39;;;;;;;20.70;9.77;;;;;;;;;;5093592;28;20443;-74
2022/12/12 13:29:11;;;;;;;19.50;11.00;;;;;;;;;;5093444;28;20446;-74
2022/12/12 13:31:46;;;;;;;16.93;10.10;;;;;;;;;;5093250;28;20485;-74
2022/12/12 13:34:15;;;;;;;21.23;12.50;;;;;;;;;;5092867;28;20456;-74
2022/12/12 13:36:44;;;;;;;20.73;10.93;;;;;;;;;;5092719;28;20843;-74
2022/12/12 13:39:24;;;;;;;16.07;10.13;;;;;;;;;;5093251;28;20936;-74
2022/12/12 13:41:56;;;;;;;18.70;9.97;;;;;;;;;;5093095;28;20461;-74
2022/12/12 13:44:36;;;;;;;19.60;12.57;;;;;;;;;;5092612;28;20454;-74
2022/12/12 13:47:04;;;;;;;18.97;11.27;;;;;;;;;;5092962;28;20466;-74
2022/12/12 13:49:36;;;;;;;19.30;10.57;;;;;;;;;;5093311;28;20458;-74
2022/12/12 13:52:21;;;;;;;24.00;12.23;;;;;;;;;;5093019;28;20486;-74
2022/12/12 13:54:51;;;;;;;17.40;9.23;;;;;;;;;;5092508;28;20460;-74
2022/12/12 13:57:39;;;;;;;19.03;9.90;;;;;;;;;;5092980;28;20477;-74
2022/12/12 14:00:19;;;;;;;16.20;10.30;;;;;;;;;;5088210;28;20458;-74
2022/12/12 14:03:01;;;;;;;17.70;9.73;;;;;;;;;;5092819;28;20447;-74
2022/12/12 14:05:29;;;;;;;19.80;10.47;;;;;;;;;;5090274;28;20508;-74
2022/12/12 14:08:01;;;;;;;18.23;11.00;;;;;;;;;;5092618;28;20481;-74
2022/12/12 14:10:32;;;;;;;16.97;10.40;;;;;;;;;;5092870;28;20952;-74
2022/12/12 14:13:15;;;;;;;17.33;10.37;;;;;;;;;;5092697;28;20488;-74
2022/12/12 14:15:44;;;;;;;18.40;10.33;;;;;;;;;;5092156;28;20460;-73
2022/12/12 14:18:18;;;;;;;16.23;9.83;;;;;;;;;;5092742;28;20470;-74
2022/12/12 14:20:53;;;;;;;14.67;9.57;;;;;;;;;;5092743;28;20483;-74
2022/12/12 14:23:26;;;;;;;23.80;13.97;;;;;;;;;;5092824;28;20446;-73
2022/12/12 14:25:54;;;;;;;19.60;13.17;;;;;;;;;;5096422;28;20450;-74
2022/12/12 14:28:23;;;;;;;16.13;11.37;;;;;;;;;;5090292;28;20470;-74
2022/12/12 14:30:58;;;;;;;18.30;12.27;;;;;;;;;;5094545;28;20542;-74
2022/12/12 14:33:33;;;;;;;18.50;11.67;;;;;;;;;;5095282;28;20496;-74
2022/12/12 14:36:05;;;;;;;20.67;11.83;;;;;;;;;;5095175;28;20454;-74
2022/12/12 14:38:35;;;;;;;18.80;10.97;;;;;;;;;;5095167;28;20472;-72
2022/12/12 14:41:05;;;;;;;16.47;10.67;;;;;;;;;;5094898;28;20454;-73
2022/12/12 14:43:35;;;;;;;19.47;11.60;;;;;;;;;;5094796;28;20450;-73
2022/12/12 14:46:03;;;;;;;19.87;13.00;;;;;;;;;;5093826;28;20886;-74
2022/12/12 14:48:30;;;;;;;15.83;11.60;;;;;;;;;;5094993;28;20845;-74
2022/12/12 14:51:03;;;;;;;21.93;12.50;;;;;;;;;;5094690;28;20456;-74